Time;durP1;ratioP1;P1;durP2;ratioP2;P2;SDS_P1;SDS_P2;PMS_P1;PMS_P2;Temp;Humidity;BMP_temperature;BMP_pressure;BME280_temperature;BME280_humidity;BME280_pressure;Samples;Min_cycle;Max_cycle;Signal;HPM_P1;HPM_P2
2021/12/26 00:00:03;;;;;;;1.48;1.38;;;;;;;-14.52;84.06;97663.38;4894788;29;20056;-83
2021/12/26 00:02:32;;;;;;;1.38;1.27;;;;;;;-14.59;84.11;97672.59;4890143;29;20060;-85
2021/12/26 00:04:59;;;;;;;1.20;1.20;;;;;;;-14.65;84.04;97665.31;4887513;29;20056;-86
2021/12/26 00:07:28;;;;;;;1.33;1.23;;;;;;;-14.69;84.38;97666.50;4889082;29;20067;-87
2021/12/26 00:09:55;;;;;;;1.40;1.30;;;;;;;-14.73;84.41;97662.50;4893489;29;20053;-86
2021/12/26 00:12:23;;;;;;;1.30;1.20;;;;;;;-14.66;84.53;97664.50;4888778;29;20429;-85
2021/12/26 00:14:50;;;;;;;1.40;1.30;;;;;;;-14.61;84.74;97661.53;4888859;29;20572;-86
2021/12/26 00:17:17;;;;;;;1.50;1.40;;;;;;;-14.57;84.69;97667.31;4893549;29;20397;-85
2021/12/26 00:19:44;;;;;;;1.50;1.40;;;;;;;-14.55;84.81;97663.66;4891704;29;20401;-84
2021/12/26 00:22:12;;;;;;;1.50;1.40;;;;;;;-14.43;84.75;97665.25;4892992;29;20416;-81
2021/12/26 00:24:39;;;;;;;1.40;1.30;;;;;;;-14.35;84.65;97663.81;4892941;29;20517;-84
2021/12/26 00:27:06;;;;;;;1.48;1.38;;;;;;;-14.27;84.70;97666.63;4895663;29;20092;-85
2021/12/26 00:29:33;;;;;;;1.58;1.48;;;;;;;-14.14;84.25;97666.47;4894649;29;20123;-87
2021/12/26 00:32:00;;;;;;;1.33;1.23;;;;;;;-14.01;84.06;97667.94;4882670;29;20082;-86
2021/12/26 00:34:28;;;;;;;1.38;1.27;;;;;;;-13.87;83.76;97674.63;4893175;29;20064;-86
2021/12/26 00:36:55;;;;;;;1.35;1.25;;;;;;;-13.75;83.54;97672.81;4895932;29;20060;-86
2021/12/26 00:39:22;;;;;;;1.30;1.20;;;;;;;-13.68;83.30;97673.94;4894170;29;20060;-86
2021/12/26 00:41:49;;;;;;;1.50;1.40;;;;;;;-13.60;83.05;97666.34;4890439;29;20416;-86
2021/12/26 00:44:19;;;;;;;0.98;0.98;;;;;;;-13.45;83.21;97668.66;4887769;29;20052;-85
2021/12/26 00:46:50;;;;;;;1.45;1.35;;;;;;;-13.31;82.84;97665.75;4873839;29;20053;-85
2021/12/26 00:49:17;;;;;;;1.30;1.20;;;;;;;-13.22;82.79;97662.34;4888905;29;20049;-84
2021/12/26 00:51:44;;;;;;;1.30;1.20;;;;;;;-13.10;82.83;97658.72;4883356;29;20060;-85
2021/12/26 00:54:11;;;;;;;1.40;1.30;;;;;;;-13.02;82.80;97650.28;4870272;29;20465;-85
2021/12/26 00:56:39;;;;;;;1.50;1.40;;;;;;;-12.99;82.70;97651.78;4892978;29;20072;-86
2021/12/26 00:59:08;;;;;;;1.50;1.40;;;;;;;-12.99;82.96;97646.59;4904181;29;20058;-81
2021/12/26 01:01:35;;;;;;;1.40;1.30;;;;;;;-12.90;82.98;97644.03;4879942;29;20509;-85
2021/12/26 01:04:04;;;;;;;1.20;1.17;;;;;;;-12.89;83.02;97644.84;4879843;29;20531;-84
2021/12/26 01:06:31;;;;;;;1.30;1.20;;;;;;;-12.82;83.25;97635.59;4865925;29;20052;-82
2021/12/26 01:08:59;;;;;;;1.20;1.20;;;;;;;-12.75;83.21;97638.50;4881714;29;20480;-83
2021/12/26 01:11:39;;;;;;;1.40;1.30;;;;;;;-12.69;83.15;97632.75;4881269;29;20068;-84
2021/12/26 01:14:11;;;;;;;1.40;1.30;;;;;;;-12.60;83.17;97631.97;4884856;29;20082;-83
2021/12/26 01:17:08;;;;;;;1.23;1.15;;;;;;;-12.51;83.16;97630.34;4907589;29;20052;-83
2021/12/26 01:19:49;;;;;;;1.37;1.27;;;;;;;-12.42;83.01;97620.94;4891925;29;20082;-83
2021/12/26 01:22:17;;;;;;;1.50;1.40;;;;;;;-12.42;82.97;97624.34;4894585;29;20049;-84
2021/12/26 01:24:55;;;;;;;1.27;1.20;;;;;;;-12.52;83.22;97611.34;4882853;29;20053;-83
2021/12/26 01:27:24;;;;;;;1.08;1.08;;;;;;;-12.54;83.52;97613.25;4897444;29;20057;-84
2021/12/26 01:29:52;;;;;;;1.30;1.20;;;;;;;-12.52;83.83;97615.72;4881525;29;20508;-83
2021/12/26 01:32:21;;;;;;;1.42;1.33;;;;;;;-12.52;83.88;97615.72;4896326;29;20512;-84
2021/12/26 01:35:03;;;;;;;1.40;1.30;;;;;;;-12.52;84.24;97616.53;4881481;29;20056;-82
2021/12/26 01:37:46;;;;;;;1.50;1.40;;;;;;;-12.47;84.39;97621.34;4881117;29;20060;-83
2021/12/26 01:40:35;;;;;;;1.17;1.15;;;;;;;-12.38;84.40;97619.69;4897911;29;20419;-84
2021/12/26 01:43:17;;;;;;;1.45;1.35;;;;;;;-12.29;84.14;97621.50;4865317;29;20108;-83
2021/12/26 01:45:54;;;;;;;1.30;1.20;;;;;;;-12.22;83.90;97622.63;4880118;29;20071;-84
2021/12/26 01:48:22;;;;;;;1.48;1.38;;;;;;;-12.13;83.80;97613.97;4880407;29;20474;-83
2021/12/26 01:50:51;;;;;;;1.10;1.10;;;;;;;-12.13;83.15;97621.78;4865573;29;20393;-82
2021/12/26 01:53:20;;;;;;;1.10;1.10;;;;;;;-12.11;83.20;97612.06;4896120;29;20050;-82
2021/12/26 01:55:47;;;;;;;1.40;1.30;;;;;;;-12.11;83.33;97617.28;4896396;29;20253;-83
2021/12/26 01:58:22;;;;;;;1.40;1.30;;;;;;;-12.07;83.14;97625.63;4880615;29;20056;-82
2021/12/26 02:00:59;;;;;;;1.50;1.40;;;;;;;-12.03;83.27;97616.59;4896369;29;20440;-83
2021/12/26 02:03:27;;;;;;;1.40;1.30;;;;;;;-11.99;83.50;97604.97;4895749;29;20127;-83
2021/12/26 02:05:54;;;;;;;1.38;1.27;;;;;;;-11.91;83.60;97607.69;4897279;29;20428;-82
2021/12/26 02:08:22;;;;;;;1.38;1.27;;;;;;;-11.77;83.36;97601.22;4895866;29;20073;-82
2021/12/26 02:10:50;;;;;;;1.02;1.02;;;;;;;-11.74;83.38;97606.16;4880431;29;20055;-83
2021/12/26 02:13:18;;;;;;;1.30;1.20;;;;;;;-11.69;83.52;97605.75;4880128;29;20070;-83
2021/12/26 02:15:45;;;;;;;1.40;1.30;;;;;;;-11.63;83.34;97602.56;4880336;29;20045;-83
2021/12/26 02:18:13;;;;;;;1.15;1.15;;;;;;;-11.63;83.36;97589.56;4880413;29;20056;-83
2021/12/26 02:23:23;;;;;;;1.33;1.23;;;;;;;-11.73;83.68;97586.16;4880058;29;20523;-83
2021/12/26 02:28:35;;;;;;;1.40;1.30;;;;;;;-11.86;84.24;97592.47;4880029;29;20074;-83
2021/12/26 02:31:03;;;;;;;1.42;1.33;;;;;;;-11.92;84.43;97607.81;4880805;29;20055;-81
2021/12/26 02:33:34;;;;;;;1.13;1.13;;;;;;;-11.98;84.80;97590.16;4890284;29;20143;-82
2021/12/26 02:36:05;;;;;;;1.35;1.25;;;;;;;-11.93;84.94;97588.78;4882111;29;20049;-82
2021/12/26 02:38:34;;;;;;;1.30;1.20;;;;;;;-11.87;85.27;97595.25;4897003;29;20064;-81
2021/12/26 02:41:01;;;;;;;1.40;1.30;;;;;;;-11.92;85.16;97590.44;4896967;29;20128;-83
2021/12/26 02:43:29;;;;;;;1.13;1.13;;;;;;;-11.92;85.33;97598.25;4895756;29;20057;-82
2021/12/26 02:46:05;;;;;;;1.42;1.33;;;;;;;-11.85;85.53;97588.91;4896801;29;20108;-83
2021/12/26 02:48:35;;;;;;;1.10;1.10;;;;;;;-11.80;85.64;97589.31;4879923;29;20097;-82
2021/12/26 02:51:03;;;;;;;1.10;1.10;;;;;;;-11.78;85.73;97587.38;4895307;29;20052;-83
2021/12/26 02:53:31;;;;;;;1.50;1.40;;;;;;;-11.72;85.71;97583.41;4895464;29;20048;-81
2021/12/26 02:56:03;;;;;;;1.33;1.23;;;;;;;-11.66;85.55;97580.25;4880148;29;20052;-82
2021/12/26 02:58:30;;;;;;;1.40;1.30;;;;;;;-11.68;85.61;97587.38;4883368;29;20104;-83
2021/12/26 03:01:17;;;;;;;1.30;1.20;;;;;;;-11.59;85.73;97570.09;4900590;29;20109;-83
2021/12/26 03:03:44;;;;;;;1.42;1.33;;;;;;;-11.56;85.72;97564.63;4900754;29;20416;-82
2021/12/26 03:06:31;;;;;;;1.25;1.17;;;;;;;-11.65;85.38;97555.84;4900119;29;20044;-82
2021/12/26 03:09:00;;;;;;;1.30;1.20;;;;;;;-11.66;85.71;97569.03;4899390;29;20059;-82
2021/12/26 03:11:29;;;;;;;1.05;1.05;;;;;;;-11.62;85.69;97566.00;4883839;29;20066;-83
2021/12/26 03:13:56;;;;;;;1.40;1.30;;;;;;;-11.63;86.04;97566.13;4899136;29;20116;-82
2021/12/26 03:16:24;;;;;;;1.40;1.30;;;;;;;-11.56;85.94;97562.00;4883442;29;20060;-81
2021/12/26 03:18:58;;;;;;;1.40;1.30;;;;;;;-11.59;85.82;97568.31;4883826;29;20048;-82
2021/12/26 03:21:26;;;;;;;;;;;;;;;-11.44;86.03;97573.06;4900641;29;20340;-82
2021/12/26 03:23:55;;;;;;;1.40;1.30;;;;;;;-11.48;85.43;97562.13;4883798;29;19982;-82
2021/12/26 03:26:22;;;;;;;1.40;1.30;;;;;;;-11.57;85.50;97555.13;4900486;29;20572;-83
2021/12/26 03:28:50;;;;;;;1.10;1.10;;;;;;;-11.64;85.66;97544.50;4869245;29;20159;-82
2021/12/26 03:31:17;;;;;;;1.10;1.10;;;;;;;-11.69;85.83;97562.31;4892123;29;20049;-82
2021/12/26 03:33:44;;;;;;;1.30;1.20;;;;;;;-11.64;86.17;97564.50;4924019;29;20037;-82
2021/12/26 03:36:11;;;;;;;1.35;1.25;;;;;;;-11.63;86.29;97551.31;4923501;29;20053;-82
2021/12/26 03:38:40;;;;;;;1.48;1.38;;;;;;;-11.50;86.31;97545.00;4896296;29;20060;-83
2021/12/26 03:41:11;;;;;;;1.40;1.30;;;;;;;-11.51;86.40;97551.19;4901712;29;20048;-82
2021/12/26 03:43:42;;;;;;;1.30;1.20;;;;;;;-11.42;86.18;97540.75;4901254;29;20519;-82
2021/12/26 03:46:09;;;;;;;1.10;1.10;;;;;;;-11.26;86.37;97557.53;4885486;29;20089;-82
2021/12/26 03:48:38;;;;;;;1.10;1.10;;;;;;;-11.18;85.88;97531.59;4883507;29;20065;-82
2021/12/26 03:51:05;;;;;;;1.33;1.23;;;;;;;-11.12;86.00;97534.41;4898667;29;20127;-82
2021/12/26 03:53:32;;;;;;;1.02;1.02;;;;;;;-10.96;86.00;97554.66;4882466;29;20214;-80
2021/12/26 03:56:03;;;;;;;1.40;1.30;;;;;;;-10.65;85.15;97550.94;4882994;29;20693;-82
2021/12/26 03:58:37;;;;;;;1.17;1.15;;;;;;;-10.64;84.37;97529.91;4882802;29;20060;-81
2021/12/26 04:01:04;;;;;;;1.30;1.20;;;;;;;-10.58;84.26;97542.38;4897896;29;20512;-81
2021/12/26 04:03:37;;;;;;;1.30;1.20;;;;;;;-10.50;84.57;97558.13;4899154;29;20528;-81
2021/12/26 04:06:06;;;;;;;1.27;1.20;;;;;;;-10.35;83.74;97563.66;4883612;29;20108;-83
2021/12/26 04:08:40;;;;;;;1.25;1.20;;;;;;;-10.34;83.43;97562.66;4890523;29;20048;-82
2021/12/26 04:11:07;;;;;;;1.10;1.10;;;;;;;-10.33;83.50;97543.44;4882808;29;20053;-82
2021/12/26 04:13:35;;;;;;;1.30;1.20;;;;;;;-10.33;83.39;97535.63;4890541;29;20048;-82
2021/12/26 04:16:04;;;;;;;1.05;1.05;;;;;;;-10.30;83.21;97544.94;4867670;29;20076;-83
2021/12/26 04:18:31;;;;;;;1.10;1.10;;;;;;;-10.25;83.12;97517.41;4882299;29;20048;-81
2021/12/26 04:20:59;;;;;;;1.50;1.40;;;;;;;-10.23;82.74;97537.28;4882307;29;20554;-82
2021/12/26 04:23:34;;;;;;;1.20;1.20;;;;;;;-10.23;82.94;97551.16;4882226;29;20075;-82
2021/12/26 04:26:02;;;;;;;1.25;1.20;;;;;;;-10.17;82.59;97541.94;4898278;29;20068;-82
2021/12/26 04:28:29;;;;;;;1.10;1.10;;;;;;;-10.16;82.42;97541.75;4881849;29;20056;-82
2021/12/26 04:30:58;;;;;;;1.40;1.30;;;;;;;-10.16;82.03;97531.31;4881854;29;20048;-82
2021/12/26 04:33:26;;;;;;;1.00;1.00;;;;;;;-10.19;82.21;97531.63;4897352;29;20067;-82
2021/12/26 04:35:55;;;;;;;1.25;1.20;;;;;;;-10.13;82.15;97527.59;4903513;29;20064;-83
2021/12/26 04:38:22;;;;;;;1.10;1.10;;;;;;;-10.19;81.95;97528.22;4884045;29;20056;-82
2021/12/26 04:40:51;;;;;;;1.30;1.20;;;;;;;-10.23;82.28;97527.66;4885431;29;20420;-82
2021/12/26 04:43:36;;;;;;;1.30;1.20;;;;;;;-10.20;82.19;97527.41;4903825;29;20044;-81
2021/12/26 04:46:15;;;;;;;1.30;1.20;;;;;;;-10.23;82.22;97532.06;4884687;29;20080;-82
2021/12/26 04:49:09;;;;;;;1.10;1.10;;;;;;;-10.28;82.38;97525.56;4899325;29;20061;-82
2021/12/26 04:51:37;;;;;;;1.40;1.30;;;;;;;-10.24;82.53;97528.66;4898653;29;20579;-82
2021/12/26 04:54:05;;;;;;;1.10;1.10;;;;;;;-10.16;82.12;97526.09;4884104;29;20060;-83
2021/12/26 04:56:34;;;;;;;1.40;1.30;;;;;;;-10.19;82.29;97529.03;4899346;29;20127;-83
2021/12/26 04:59:04;;;;;;;1.10;1.10;;;;;;;-10.10;81.79;97529.91;4904011;29;20091;-82
2021/12/26 05:01:34;;;;;;;1.25;1.20;;;;;;;-10.16;82.12;97525.28;4891148;29;20052;-83
2021/12/26 05:04:28;;;;;;;1.10;1.10;;;;;;;-10.13;81.92;97559.72;4856597;29;20041;-81
2021/12/26 05:07:26;;;;;;;0.90;0.90;;;;;;;-10.07;81.19;97535.66;4841411;29;20058;-82
2021/12/26 05:09:59;;;;;;;1.08;1.08;;;;;;;-10.13;81.00;97559.72;4846236;29;20102;-81
2021/12/26 05:12:28;;;;;;;1.10;1.10;;;;;;;-10.25;81.29;97537.47;4846224;29;20058;-82
2021/12/26 05:14:55;;;;;;;1.10;1.10;;;;;;;-10.33;81.54;97555.66;4842014;29;20106;-82
2021/12/26 05:17:25;;;;;;;1.10;1.10;;;;;;;-10.34;81.65;97539.19;4838803;29;20050;-81
2021/12/26 05:19:52;;;;;;;1.15;1.15;;;;;;;-10.33;81.84;97545.22;4858301;29;20053;-85
2021/12/26 05:22:20;;;;;;;1.10;1.10;;;;;;;-10.36;81.57;97543.72;4849377;29;20152;-85
2021/12/26 05:24:48;;;;;;;1.40;1.30;;;;;;;-10.27;81.64;97557.66;4856368;29;20045;-83
2021/12/26 05:27:16;;;;;;;1.00;1.00;;;;;;;-10.24;81.16;97559.97;4841957;29;20408;-84
2021/12/26 05:29:43;;;;;;;1.20;1.20;;;;;;;-10.13;80.65;97540.66;4840261;29;20061;-85
2021/12/26 05:32:10;;;;;;;1.10;1.10;;;;;;;-10.18;81.02;97558.53;4848184;29;20149;-84
2021/12/26 05:34:38;;;;;;;1.23;1.17;;;;;;;-10.18;80.70;97546.31;4833653;29;20055;-82
2021/12/26 05:37:07;;;;;;;1.27;1.20;;;;;;;-10.13;80.68;97556.28;4818945;29;20101;-83
2021/12/26 05:39:35;;;;;;;1.40;1.30;;;;;;;-10.14;80.58;97539.81;4836206;29;20061;-83
2021/12/26 05:42:04;;;;;;;1.30;1.20;;;;;;;-10.18;80.74;97537.66;4843995;29;20061;-82
2021/12/26 05:44:32;;;;;;;1.40;1.30;;;;;;;-10.14;80.79;97547.66;4861970;29;20068;-82
2021/12/26 05:47:02;;;;;;;1.05;1.05;;;;;;;-10.09;80.58;97550.63;4877096;29;20057;-81
2021/12/26 05:49:45;;;;;;;1.30;1.20;;;;;;;-10.06;80.44;97549.50;4850304;29;20142;-82
2021/12/26 05:52:18;;;;;;;1.30;1.20;;;;;;;-10.10;80.33;97538.56;4864451;29;20057;-81
2021/12/26 05:54:55;;;;;;;1.40;1.30;;;;;;;-10.12;80.68;97545.72;4863247;29;20045;-82
2021/12/26 05:57:24;;;;;;;1.05;1.05;;;;;;;-10.13;80.73;97515.34;4867101;29;20057;-82
2021/12/26 05:59:53;;;;;;;1.10;1.10;;;;;;;-10.06;80.69;97541.69;4867052;29;20075;-81
2021/12/26 06:02:20;;;;;;;1.38;1.27;;;;;;;-10.06;80.80;97552.94;4856532;29;20548;-80
2021/12/26 06:04:48;;;;;;;1.10;1.10;;;;;;;-9.99;80.32;97537.50;4873275;29;20053;-84
2021/12/26 06:07:16;;;;;;;1.05;1.05;;;;;;;-9.90;80.42;97547.06;4843200;29;20470;-83
2021/12/26 06:09:45;;;;;;;1.25;1.20;;;;;;;-9.97;80.77;97519.91;4840713;29;20114;-82
2021/12/26 06:12:13;;;;;;;1.40;1.30;;;;;;;-9.91;80.64;97534.16;4840813;29;20581;-82
2021/12/26 06:14:40;;;;;;;1.27;1.20;;;;;;;-9.87;80.48;97546.75;4841359;29;20060;-85
2021/12/26 06:17:09;;;;;;;1.20;1.20;;;;;;;-9.88;80.56;97526.81;4872237;29;20458;-83
2021/12/26 06:20:13;;;;;;;1.30;1.20;;;;;;;-9.81;80.31;97527.03;4846276;29;20090;-79
2021/12/26 06:23:02;;;;;;;1.10;1.10;;;;;;;-9.78;80.19;97526.72;4874937;29;20049;-83
2021/12/26 06:25:55;;;;;;;1.30;1.20;;;;;;;-9.74;79.98;97522.84;4874872;29;20064;-82
2021/12/26 06:28:50;;;;;;;1.40;1.30;;;;;;;-9.71;79.76;97513.91;4886452;29;20072;-81
2021/12/26 06:31:50;;;;;;;1.30;1.20;;;;;;;-9.79;79.97;97532.94;4846607;29;20060;-83
2021/12/26 06:34:51;;;;;;;1.13;1.13;;;;;;;-9.75;80.23;97513.38;4822892;29;10000480;-85
2021/12/26 06:37:37;;;;;;;1.27;1.20;;;;;;;-9.70;80.12;97508.50;4882800;29;20277;-84
2021/12/26 06:40:23;;;;;;;1.15;1.15;;;;;;;-9.69;80.22;97512.78;4881903;29;20048;-87
2021/12/26 06:43:11;;;;;;;1.20;1.17;;;;;;;-9.62;80.46;97523.41;4896671;29;20157;-86
2021/12/26 06:46:07;;;;;;;1.33;1.23;;;;;;;-9.63;80.55;97516.56;4874007;29;20051;-83
2021/12/26 06:49:07;;;;;;;1.10;1.10;;;;;;;-9.58;80.96;97500.44;4871904;29;20140;-83
2021/12/26 06:51:34;;;;;;;1.10;1.10;;;;;;;-9.51;80.62;97531.00;4858258;29;20049;-83
2021/12/26 06:54:01;;;;;;;1.10;1.10;;;;;;;-9.45;80.71;97548.66;4875171;29;20112;-83
2021/12/26 06:56:28;;;;;;;1.10;1.10;;;;;;;-9.43;80.47;97517.97;4854732;29;20049;-84
2021/12/26 06:58:56;;;;;;;0.90;0.90;;;;;;;-9.42;81.01;97524.00;4871892;29;20052;-81
2021/12/26 07:01:26;;;;;;;0.98;0.98;;;;;;;-9.40;81.15;97537.75;4863322;29;20049;-85
2021/12/26 07:03:54;;;;;;;1.27;1.20;;;;;;;-9.25;80.43;97514.47;4872478;29;20060;-84
2021/12/26 07:06:24;;;;;;;1.30;1.20;;;;;;;-9.32;80.55;97493.38;4868558;29;20057;-86
2021/12/26 07:08:55;;;;;;;1.25;1.23;;;;;;;-9.31;80.67;97502.88;4855184;29;20052;-85
2021/12/26 07:11:23;;;;;;;1.33;1.23;;;;;;;-9.40;80.59;97495.94;4835026;29;20133;-83
2021/12/26 07:13:51;;;;;;;1.10;1.10;;;;;;;-9.32;80.71;97509.03;4859816;29;20134;-81
2021/12/26 07:16:18;;;;;;;1.15;1.15;;;;;;;-9.27;80.57;97521.66;4870757;29;20529;-83
2021/12/26 07:18:45;;;;;;;1.10;1.10;;;;;;;-9.30;80.28;97501.06;4869826;29;20072;-82
2021/12/26 07:21:18;;;;;;;1.30;1.20;;;;;;;-9.30;80.66;97494.03;4870865;29;20061;-82
2021/12/26 07:24:03;;;;;;;1.08;1.08;;;;;;;-9.31;80.84;97496.81;4866467;29;20052;-82
2021/12/26 07:26:36;;;;;;;1.10;1.10;;;;;;;-9.36;81.00;97499.91;4868720;29;20049;-84
2021/12/26 07:29:14;;;;;;;1.08;1.08;;;;;;;-9.38;81.26;97488.78;4885927;29;20564;-83
2021/12/26 07:31:47;;;;;;;1.10;1.10;;;;;;;-9.40;81.49;97501.97;4873009;29;20114;-87
2021/12/26 07:34:15;;;;;;;1.20;1.20;;;;;;;-9.40;81.30;97494.16;4842513;29;20066;-84
2021/12/26 07:36:47;;;;;;;1.10;1.10;;;;;;;-9.40;81.43;97501.19;4872178;29;20064;-88
2021/12/26 07:39:22;;;;;;;1.17;1.17;;;;;;;-9.45;81.14;97487.75;4891447;29;20116;-83
2021/12/26 07:41:52;;;;;;;0.90;0.90;;;;;;;-9.46;81.33;97512.25;4872528;29;20052;-84
2021/12/26 07:44:38;;;;;;;1.02;1.02;;;;;;;-9.62;81.40;97477.22;4880210;29;20076;-82
2021/12/26 07:47:25;;;;;;;1.00;1.00;;;;;;;-9.47;81.12;97476.63;4880842;29;20085;-83
2021/12/26 07:49:56;;;;;;;1.40;1.30;;;;;;;-9.38;80.91;97494.00;4879458;29;20588;-84
2021/12/26 07:52:44;;;;;;;1.00;1.00;;;;;;;-9.38;80.71;97488.78;4898220;29;20137;-84
2021/12/26 07:55:33;;;;;;;1.40;1.30;;;;;;;-9.38;80.94;97486.16;4899353;29;20420;-85
2021/12/26 07:58:24;;;;;;;1.05;1.05;;;;;;;-9.45;81.02;97467.66;4877742;29;20129;-84
2021/12/26 08:01:09;;;;;;;1.27;1.20;;;;;;;-9.41;81.16;97489.91;4875410;29;20049;-83
2021/12/26 08:03:49;;;;;;;1.40;1.30;;;;;;;-9.40;81.37;97482.88;4877893;29;20151;-83
2021/12/26 08:06:47;;;;;;;1.10;1.10;;;;;;;-9.47;81.27;97469.66;4878429;29;20053;-83
2021/12/26 08:09:15;;;;;;;1.40;1.30;;;;;;;-9.48;81.45;97480.25;4861450;29;20061;-83
2021/12/26 08:11:44;;;;;;;1.33;1.23;;;;;;;-9.49;81.52;97478.63;4863708;29;20101;-85
2021/12/26 08:14:12;;;;;;;1.40;1.30;;;;;;;-9.34;81.43;97469.22;4849779;29;20557;-85
2021/12/26 08:16:39;;;;;;;1.35;1.25;;;;;;;-9.28;81.12;97473.81;4879635;29;20053;-85
2021/12/26 08:19:09;;;;;;;1.00;1.00;;;;;;;-9.25;80.48;97455.19;4879154;29;20093;-85
2021/12/26 08:21:37;;;;;;;1.00;1.00;;;;;;;-9.13;79.60;97484.47;4864456;29;20099;-85
2021/12/26 08:24:07;;;;;;;1.33;1.23;;;;;;;-9.13;79.51;97453.13;4833852;29;20056;-84
2021/12/26 08:26:35;;;;;;;1.10;1.10;;;;;;;-8.99;79.00;97503.97;4880094;29;20055;-84
2021/12/26 08:29:03;;;;;;;1.20;1.20;;;;;;;-9.00;78.38;97471.78;4880713;29;20127;-85
2021/12/26 08:31:31;;;;;;;1.13;1.13;;;;;;;-8.93;77.94;97458.91;4880283;29;20053;-84
2021/12/26 08:34:07;;;;;;;1.20;1.20;;;;;;;-8.91;77.72;97449.13;4834050;29;20056;-85
2021/12/26 08:36:34;;;;;;;1.10;1.10;;;;;;;-8.90;78.12;97440.28;4865310;29;20067;-85
2021/12/26 08:39:03;;;;;;;1.08;1.08;;;;;;;-8.81;77.96;97448.94;4882149;29;20057;-86
2021/12/26 08:41:34;;;;;;;1.30;1.20;;;;;;;-8.82;78.09;97442.91;4865167;29;20057;-85
2021/12/26 08:44:02;;;;;;;1.05;1.05;;;;;;;-8.81;77.90;97447.19;4820153;29;20053;-86
2021/12/26 08:46:29;;;;;;;1.30;1.20;;;;;;;-8.83;78.04;97440.47;4849315;29;20521;-85
2021/12/26 08:48:57;;;;;;;1.25;1.20;;;;;;;-8.84;78.33;97434.41;4880840;29;20068;-86
2021/12/26 08:51:24;;;;;;;1.40;1.30;;;;;;;-8.86;78.86;97431.16;4880086;29;20083;-85
2021/12/26 08:53:52;;;;;;;1.30;1.20;;;;;;;-8.85;78.80;97432.78;4881589;29;20084;-84
2021/12/26 08:56:19;;;;;;;1.10;1.10;;;;;;;-8.93;78.28;97414.47;4867732;29;20113;-85
2021/12/26 08:58:50;;;;;;;0.98;0.98;;;;;;;-8.85;78.70;97424.13;4863512;29;20086;-84
2021/12/26 09:01:17;;;;;;;1.13;1.13;;;;;;;-8.83;78.29;97415.13;4863909;29;20517;-84
2021/12/26 09:03:45;;;;;;;1.10;1.10;;;;;;;-8.87;78.09;97400.72;4864930;29;20049;-84
2021/12/26 09:06:13;;;;;;;1.00;1.00;;;;;;;-8.78;78.34;97425.91;4878708;29;20478;-84
2021/12/26 09:08:40;;;;;;;1.30;1.20;;;;;;;-8.79;78.35;97420.84;4880483;29;20087;-84
2021/12/26 09:11:08;;;;;;;1.08;1.08;;;;;;;-8.82;78.54;97426.41;4864812;29;20097;-84
2021/12/26 09:13:35;;;;;;;1.10;1.10;;;;;;;-8.86;78.42;97412.84;4871837;29;20048;-85
2021/12/26 09:16:03;;;;;;;1.10;1.10;;;;;;;-8.78;78.47;97418.06;4870465;29;20061;-85
2021/12/26 09:18:31;;;;;;;1.10;1.10;;;;;;;-8.88;78.48;97416.59;4868978;29;20057;-84
2021/12/26 09:20:58;;;;;;;1.13;1.13;;;;;;;-8.81;78.18;97414.94;4871300;29;20053;-85
2021/12/26 09:23:28;;;;;;;1.48;1.38;;;;;;;-8.79;78.51;97398.13;4862735;29;20094;-85
2021/12/26 09:25:55;;;;;;;1.10;1.10;;;;;;;-8.68;78.68;97402.25;4879882;29;20053;-85
2021/12/26 09:28:23;;;;;;;1.10;1.10;;;;;;;-8.65;78.31;97385.41;4879240;29;20056;-85
2021/12/26 09:30:52;;;;;;;1.10;1.10;;;;;;;-8.60;77.74;97383.94;4848105;29;20485;-85
2021/12/26 09:33:25;;;;;;;1.23;1.20;;;;;;;-8.56;77.29;97376.56;4878776;29;20109;-85
2021/12/26 09:35:52;;;;;;;0.98;0.98;;;;;;;-8.52;76.97;97396.19;4879435;29;20080;-84
2021/12/26 09:38:19;;;;;;;1.23;1.17;;;;;;;-8.47;76.43;97378.19;4879093;29;20140;-85
2021/12/26 09:40:59;;;;;;;1.25;1.20;;;;;;;-8.41;76.21;97385.38;4878889;29;20129;-85
2021/12/26 09:43:42;;;;;;;1.10;1.10;;;;;;;-8.43;76.88;97379.53;4876738;29;20052;-85
2021/12/26 09:46:10;;;;;;;1.02;1.02;;;;;;;-8.42;76.69;97377.72;4838948;29;20105;-85
2021/12/26 09:48:37;;;;;;;1.10;1.10;;;;;;;-8.37;76.61;97391.91;4885616;29;20041;-86
2021/12/26 09:51:05;;;;;;;1.10;1.10;;;;;;;-8.50;76.27;97378.53;4885953;29;20199;-85
2021/12/26 09:53:37;;;;;;;1.02;1.02;;;;;;;-8.37;76.89;97394.53;4866520;29;20056;-85
2021/12/26 09:56:06;;;;;;;1.00;1.00;;;;;;;-8.33;76.95;97366.22;4866901;29;20052;-85
2021/12/26 09:58:35;;;;;;;1.08;1.08;;;;;;;-8.31;76.90;97365.06;4880239;29;20045;-86
2021/12/26 10:01:02;;;;;;;1.00;1.00;;;;;;;-8.25;76.74;97381.09;4878477;29;20493;-86
2021/12/26 10:03:36;;;;;;;1.20;1.20;;;;;;;-8.27;76.53;97375.22;4877025;29;20067;-85
2021/12/26 10:06:14;;;;;;;1.10;1.10;;;;;;;-8.23;77.04;97358.19;4861492;29;20060;-85
2021/12/26 10:08:50;;;;;;;1.00;1.00;;;;;;;-8.26;77.08;97342.81;4878373;29;20151;-83
2021/12/26 10:11:19;;;;;;;1.00;1.00;;;;;;;-8.24;77.24;97346.09;4878071;29;20501;-84
2021/12/26 10:14:01;;;;;;;1.13;1.13;;;;;;;-8.21;77.04;97351.81;4831607;29;20055;-83
2021/12/26 10:16:32;;;;;;;1.02;1.02;;;;;;;-8.22;76.77;97378.16;4808925;29;20086;-85
2021/12/26 10:19:00;;;;;;;1.23;1.17;;;;;;;-8.33;77.10;97342.66;4777954;29;20062;-84
2021/12/26 10:21:33;;;;;;;1.20;1.17;;;;;;;-8.32;77.57;97352.97;4820623;29;20178;-86
2021/12/26 10:24:20;;;;;;;0.98;0.98;;;;;;;-8.29;77.81;97334.31;4806492;29;20077;-85
2021/12/26 10:26:56;;;;;;;1.00;1.00;;;;;;;-8.31;77.71;97364.25;4820632;29;20082;-85
2021/12/26 10:29:25;;;;;;;1.08;1.08;;;;;;;-8.25;77.29;97323.50;4822345;29;20100;-85
2021/12/26 10:31:56;;;;;;;1.30;1.20;;;;;;;-8.20;77.80;97336.91;4826242;29;20062;-85
2021/12/26 10:34:33;;;;;;;1.10;1.10;;;;;;;-8.17;77.22;97342.66;4821673;29;20065;-85
2021/12/26 10:37:04;;;;;;;0.88;0.88;;;;;;;-8.18;77.16;97327.91;4821017;29;20058;-85
2021/12/26 10:39:36;;;;;;;0.93;0.93;;;;;;;-8.14;77.69;97321.38;4833957;29;20054;-81
2021/12/26 10:42:06;;;;;;;1.27;1.20;;;;;;;-8.13;77.90;97324.78;4865564;29;20517;-84
2021/12/26 10:44:45;;;;;;;0.95;0.95;;;;;;;-8.24;77.75;97325.16;4878663;29;20112;-83
2021/12/26 10:47:18;;;;;;;1.13;1.13;;;;;;;-8.31;77.91;97299.63;4890886;29;20075;-83
2021/12/26 10:50:12;;;;;;;1.30;1.20;;;;;;;-8.23;78.05;97313.69;4863685;29;20057;-84
2021/12/26 10:52:48;;;;;;;1.00;1.00;;;;;;;-8.27;77.99;97302.75;4893413;29;20537;-85
2021/12/26 10:55:31;;;;;;;1.40;1.30;;;;;;;-8.46;78.42;97303.13;4879976;29;20052;-85
2021/12/26 10:58:10;;;;;;;0.98;0.98;;;;;;;-8.41;78.53;97311.31;4893623;29;20052;-83
2021/12/26 11:00:43;;;;;;;1.10;1.10;;;;;;;-8.42;78.94;97307.88;4890472;29;20077;-82
2021/12/26 11:03:13;;;;;;;1.30;1.20;;;;;;;-8.36;78.80;97306.34;4875044;29;20577;-84
2021/12/26 11:05:54;;;;;;;1.00;1.00;;;;;;;-8.31;79.34;97298.81;4890508;29;20072;-84
2021/12/26 11:08:26;;;;;;;0.90;0.90;;;;;;;-8.25;79.33;97297.34;4864215;29;20429;-84
2021/12/26 11:10:54;;;;;;;1.00;1.00;;;;;;;-8.26;79.39;97293.91;4896087;29;20111;-83
2021/12/26 11:13:29;;;;;;;1.05;1.05;;;;;;;-8.23;79.19;97298.00;4881588;29;20060;-84
2021/12/26 11:16:00;;;;;;;0.98;0.98;;;;;;;-8.14;78.92;97302.22;4899317;29;20049;-84
2021/12/26 11:18:28;;;;;;;1.00;1.00;;;;;;;-8.04;78.65;97288.94;4882174;29;20072;-85
2021/12/26 11:21:08;;;;;;;1.23;1.20;;;;;;;-7.93;78.26;97280.72;4883798;29;20073;-84
2021/12/26 11:23:40;;;;;;;1.23;1.20;;;;;;;-8.06;78.50;97283.88;4898292;29;20049;-85
2021/12/26 11:26:16;;;;;;;1.02;1.02;;;;;;;-8.16;79.18;97291.09;4897890;29;20049;-83
2021/12/26 11:28:47;;;;;;;1.10;1.10;;;;;;;-8.14;78.87;97297.00;4898211;29;20522;-82
2021/12/26 11:31:25;;;;;;;1.00;1.00;;;;;;;-8.06;78.86;97294.34;4895618;29;20096;-82
2021/12/26 11:34:04;;;;;;;1.00;1.00;;;;;;;-8.19;78.40;97284.41;4879500;29;20512;-83
2021/12/26 11:36:32;;;;;;;1.10;1.10;;;;;;;-8.18;78.33;97293.88;4862090;29;20049;-80
2021/12/26 11:39:37;;;;;;;1.05;1.05;;;;;;;-8.14;78.00;97276.06;4839089;29;20073;-83
2021/12/26 11:42:48;;;;;;;0.90;0.90;;;;;;;-8.12;78.16;97277.53;4826835;29;20062;-82
2021/12/26 11:46:22;;;;;;;1.05;1.05;;;;;;;-8.02;77.89;97274.72;4830283;29;20107;-83
2021/12/26 11:50:02;;;;;;;0.90;0.90;;;;;;;-7.93;77.10;97271.06;4764100;30;20071;-83
2021/12/26 11:53:25;;;;;;;1.15;1.15;;;;;;;-7.85;76.98;97275.44;4776505;30;20078;-83
2021/12/26 11:56:39;;;;;;;0.90;0.90;;;;;;;-7.83;76.60;97270.84;4725416;30;20064;-81
2021/12/26 11:59:20;;;;;;;1.02;1.02;;;;;;;-7.86;76.61;97268.56;4720111;30;20065;-81
2021/12/26 12:02:01;;;;;;;0.88;0.88;;;;;;;-7.97;76.55;97261.13;4723536;30;20447;-80